Time;durP1;ratioP1;P1;durP2;ratioP2;P2;SDS_P1;SDS_P2;PMS_P1;PMS_P2;Temp;Humidity;BMP_temperature;BMP_pressure;BME280_temperature;BME280_humidity;BME280_pressure;Samples;Min_cycle;Max_cycle;Signal;HPM_P1;HPM_P2
2022/01/26 00:06:07;;;;;;;0.80;0.80;;;-0.70;99.90;;;;;;5052149;28;20047;-76
2022/01/26 00:08:33;;;;;;;0.68;0.68;;;-0.90;99.90;;;;;;5052352;28;20506;-76
2022/01/26 00:10:59;;;;;;;0.80;0.80;;;-1.10;99.90;;;;;;5052927;28;20033;-76
2022/01/26 00:13:25;;;;;;;0.85;0.85;;;-1.20;99.90;;;;;;5017740;28;20032;-76
2022/01/26 00:15:51;;;;;;;0.68;0.68;;;-1.10;99.90;;;;;;5037514;28;20036;-77
2022/01/26 00:18:20;;;;;;;2.53;2.42;;;-1.00;99.90;;;;;;5037845;28;20388;-76
2022/01/26 00:20:54;;;;;;;0.65;0.65;;;-0.80;99.90;;;;;;5021295;28;20116;-76
2022/01/26 00:38:47;;;;;;;5.05;1.95;;;-0.50;99.90;;;;;;5037803;28;20039;-77
2022/01/26 00:41:18;;;;;;;0.40;0.40;;;-0.50;99.90;;;;;;5037695;28;20017;-76
2022/01/26 00:43:53;;;;;;;0.40;0.40;;;-0.60;99.90;;;;;;5055303;28;20078;-76
2022/01/26 00:46:20;;;;;;;0.60;0.60;;;-0.70;99.90;;;;;;5055258;28;20017;-77
2022/01/26 00:48:46;;;;;;;1.17;1.17;;;-0.70;99.90;;;;;;5037396;28;20147;-76
2022/01/26 00:51:16;;;;;;;1.50;1.50;;;-1.00;99.90;;;;;;5055061;28;20474;-76
2022/01/26 00:53:47;;;;;;;0.70;0.70;;;-1.20;99.90;;;;;;5055305;28;20029;-76
2022/01/26 00:56:13;;;;;;;3.50;3.30;;;-1.20;99.90;;;;;;5020770;28;20025;-76
2022/01/26 00:58:39;;;;;;;0.35;0.35;;;-1.10;99.90;;;;;;5037228;28;20036;-77
2022/01/26 01:01:05;;;;;;;0.60;0.60;;;-1.10;99.90;;;;;;5055075;28;20017;-77
2022/01/26 01:03:34;;;;;;;0.73;0.73;;;-0.90;99.90;;;;;;5054862;28;20053;-77
2022/01/26 01:06:05;;;;;;;1.85;1.75;;;-0.70;99.90;;;;;;5037186;28;20079;-76
2022/01/26 01:08:31;;;;;;;0.50;0.50;;;-0.50;99.90;;;;;;5037097;28;20173;-77
2022/01/26 01:10:57;;;;;;;0.50;0.50;;;-0.20;99.90;;;;;;5054841;28;20025;-77
2022/01/26 01:13:33;;;;;;;0.85;0.85;;;-0.20;99.90;;;;;;5036955;28;20437;-76
2022/01/26 01:16:00;;;;;;;0.32;0.32;;;-0.30;99.90;;;;;;5036928;28;20055;-77
2022/01/26 01:18:42;;;;;;;0.70;0.68;;;-0.50;99.90;;;;;;5054598;28;20029;-76
2022/01/26 01:29:28;;;;;;;0.70;0.70;;;-0.20;99.90;;;;;;5054419;28;20032;-76
2022/01/26 01:32:02;;;;;;;0.40;0.40;;;-0.10;99.90;;;;;;5054383;28;20024;-77
2022/01/26 01:34:39;;;;;;;1.17;1.17;;;0.00;99.90;;;;;;5054447;28;20079;-76
2022/01/26 01:37:08;;;;;;;0.50;0.50;;;0.00;99.90;;;;;;5054426;28;20025;-77
2022/01/26 01:39:36;;;;;;;0.30;0.30;;;-0.20;99.90;;;;;;5036514;28;20031;-76
2022/01/26 01:42:04;;;;;;;0.47;0.47;;;-0.30;99.90;;;;;;5019739;28;20487;-77
2022/01/26 01:44:30;;;;;;;0.40;0.40;;;-0.20;99.90;;;;;;5054263;28;20472;-76
2022/01/26 01:46:57;;;;;;;0.50;0.50;;;-0.20;99.90;;;;;;5054141;28;20036;-77
2022/01/26 01:49:23;;;;;;;0.88;0.88;;;-0.10;99.90;;;;;;5019701;28;20033;-77
2022/01/26 01:51:51;;;;;;;0.52;0.52;;;0.00;99.90;;;;;;5036280;28;20102;-76
2022/01/26 01:54:18;;;;;;;0.50;0.50;;;-0.10;99.90;;;;;;5019691;28;20029;-77
2022/01/26 01:56:51;;;;;;;0.90;0.90;;;-0.20;99.90;;;;;;5053649;28;20028;-77
2022/01/26 01:59:17;;;;;;;2.42;2.22;;;-0.40;99.90;;;;;;5035987;28;20024;-77
2022/01/26 02:01:42;;;;;;;0.60;0.60;;;-0.40;99.90;;;;;;5035847;28;20025;-77
2022/01/26 02:04:08;;;;;;;0.47;0.47;;;-0.50;99.90;;;;;;5036032;28;20028;-76
2022/01/26 02:06:35;;;;;;;3.70;1.02;;;-0.70;99.90;;;;;;5036035;28;20441;-77
2022/01/26 02:09:01;;;;;;;0.40;0.40;;;-1.00;99.90;;;;;;5035497;28;20040;-76
2022/01/26 02:11:26;;;;;;;0.50;0.50;;;-1.00;99.90;;;;;;5053439;28;20492;-77
2022/01/26 02:14:04;;;;;;;0.85;0.85;;;-0.80;99.90;;;;;;5035642;28;20028;-76
2022/01/26 02:16:43;;;;;;;0.60;0.60;;;-0.70;99.90;;;;;;5035416;28;20025;-77
2022/01/26 02:22:03;;;;;;;0.60;0.60;;;-0.50;99.90;;;;;;5053318;28;20026;-76
2022/01/26 02:57:33;;;;;;;0.50;0.50;;;-1.00;99.90;;;;;;5052628;28;20029;-75
2022/01/26 03:00:17;;;;;;;0.63;0.63;;;-0.80;99.90;;;;;;5052727;28;20385;-76
2022/01/26 03:05:12;;;;;;;0.40;0.40;;;-0.50;99.90;;;;;;5053135;28;20027;-75
2022/01/26 03:07:46;;;;;;;0.40;0.40;;;-0.50;99.90;;;;;;5053262;28;20021;-76
2022/01/26 03:10:56;;;;;;;0.50;0.50;;;-0.60;99.90;;;;;;5018530;28;20064;-75
2022/01/26 03:13:07;;;;;;;0.70;0.70;;;-1.10;99.90;;;;;;5044186;28;20044;-75
2022/01/26 03:15:41;;;;;;;0.40;0.40;;;-1.00;99.90;;;;;;5018539;28;20052;-75
2022/01/26 03:18:18;;;;;;;0.47;0.47;;;-0.90;99.90;;;;;;5034770;28;20033;-76
2022/01/26 03:20:46;;;;;;;0.50;0.50;;;-1.10;99.90;;;;;;5018242;28;20051;-77
2022/01/26 03:29:12;;;;;;;5.57;3.70;;;-1.20;99.90;;;;;;5034777;28;20079;-77
2022/01/26 03:34:16;;;;;;;7.93;7.13;;;-1.30;99.90;;;;;;5034726;28;20021;-77
2022/01/26 03:39:14;;;;;;;0.40;0.40;;;-1.30;99.90;;;;;;5052516;28;20029;-77
2022/01/26 03:41:49;;;;;;;0.63;0.63;;;-1.40;99.90;;;;;;5052579;28;20025;-77
2022/01/26 03:44:15;;;;;;;0.47;0.47;;;-1.40;99.90;;;;;;5018550;28;20374;-77
2022/01/26 03:46:42;;;;;;;0.55;0.55;;;-1.60;99.90;;;;;;5053485;28;20484;-76
2022/01/26 03:49:09;;;;;;;0.55;0.55;;;-1.90;99.90;;;;;;5055689;28;20096;-75
2022/01/26 03:51:35;;;;;;;3.03;1.65;;;-2.00;99.90;;;;;;5038865;28;20024;-77
2022/01/26 03:54:02;;;;;;;0.40;0.40;;;-2.10;99.90;;;;;;5038780;28;20067;-76
2022/01/26 03:56:28;;;;;;;0.50;0.50;;;-2.10;99.90;;;;;;5056154;28;20468;-76
2022/01/26 03:58:54;;;;;;;0.60;0.60;;;-2.00;99.90;;;;;;5056400;28;20024;-76
2022/01/26 04:01:20;;;;;;;0.47;0.47;;;-1.70;99.90;;;;;;5056321;28;20021;-77
2022/01/26 04:03:46;;;;;;;0.60;0.60;;;-1.60;99.90;;;;;;5038705;28;20396;-76
2022/01/26 04:06:12;;;;;;;17.05;3.83;;;-1.60;99.90;;;;;;5038767;28;20032;-76
2022/01/26 04:08:40;;;;;;;0.50;0.50;;;-1.50;99.90;;;;;;5038608;28;20032;-76
2022/01/26 04:11:29;;;;;;;0.70;0.70;;;-1.40;99.90;;;;;;5021938;28;20032;-76
2022/01/26 04:13:59;;;;;;;0.50;0.50;;;-1.40;99.90;;;;;;5038602;28;20400;-76
2022/01/26 04:16:25;;;;;;;0.52;0.52;;;-1.30;99.90;;;;;;5038202;28;20028;-76
2022/01/26 04:18:53;;;;;;;0.93;0.93;;;-1.40;99.90;;;;;;5051081;22;20515;-73
2022/01/26 04:23:51;;;;;;;0.73;0.73;;;-1.20;99.90;;;;;;5054903;28;20049;-74
2022/01/26 04:26:21;;;;;;;0.70;0.70;;;-1.20;99.90;;;;;;5054902;28;20021;-74
2022/01/26 04:28:56;;;;;;;0.50;0.50;;;-1.20;99.90;;;;;;5037094;28;20024;-74
2022/01/26 04:31:22;;;;;;;0.40;0.40;;;-1.20;99.90;;;;;;5054935;28;20096;-74
2022/01/26 04:33:49;;;;;;;0.50;0.50;;;-1.20;99.90;;;;;;5036767;28;20029;-74
2022/01/26 04:36:21;;;;;;;0.47;0.47;;;-1.20;99.90;;;;;;5036651;28;20032;-74
2022/01/26 04:38:52;;;;;;;0.40;0.40;;;-1.40;99.90;;;;;;5036826;28;20032;-74
2022/01/26 04:41:33;;;;;;;2.70;2.53;;;-1.50;99.90;;;;;;5054558;28;20029;-73
2022/01/26 04:44:06;;;;;;;0.68;0.68;;;-1.30;99.90;;;;;;5020306;28;20191;-73
2022/01/26 04:46:32;;;;;;;0.65;0.65;;;-1.20;99.90;;;;;;5054534;28;20021;-74
2022/01/26 04:48:58;;;;;;;0.40;0.40;;;-1.20;99.90;;;;;;5036534;28;20020;-73
2022/01/26 04:51:24;;;;;;;0.40;0.40;;;-1.20;99.90;;;;;;5054422;28;20017;-74
2022/01/26 04:53:50;;;;;;;0.30;0.30;;;-1.10;99.90;;;;;;5019881;28;20032;-74
2022/01/26 04:56:16;;;;;;;0.40;0.40;;;-1.00;99.90;;;;;;5019794;28;20041;-74
2022/01/26 04:58:42;;;;;;;0.77;0.77;;;-1.10;99.90;;;;;;5036562;28;20114;-74
2022/01/26 05:01:08;;;;;;;0.60;0.60;;;-1.00;99.90;;;;;;5018947;28;20047;-74
2022/01/26 05:03:33;;;;;;;0.43;0.43;;;-1.00;99.90;;;;;;5036400;28;20017;-74
2022/01/26 05:05:59;;;;;;;0.38;0.38;;;-1.10;99.90;;;;;;5019828;28;20523;-74
2022/01/26 05:08:25;;;;;;;1.35;1.25;;;-0.80;99.90;;;;;;5036256;28;20021;-74
2022/01/26 05:10:50;;;;;;;0.40;0.40;;;-0.80;99.90;;;;;;5054078;28;20017;-74
2022/01/26 05:13:16;;;;;;;0.40;0.40;;;-0.70;99.90;;;;;;5019527;28;20514;-74
2022/01/26 05:15:42;;;;;;;0.40;0.40;;;-0.60;99.90;;;;;;5053957;28;20017;-74
2022/01/26 05:18:10;;;;;;;0.85;0.85;;;-0.60;99.90;;;;;;5053813;28;20036;-74
2022/01/26 05:20:36;;;;;;;0.40;0.40;;;-0.60;99.90;;;;;;5054034;28;20033;-74
2022/01/26 05:23:02;;;;;;;0.98;0.98;;;-0.50;99.90;;;;;;5053887;28;20028;-74
2022/01/26 05:25:28;;;;;;;0.30;0.30;;;-0.60;99.90;;;;;;5053788;28;20491;-74
2022/01/26 05:27:53;;;;;;;0.40;0.40;;;-0.50;99.90;;;;;;5035890;28;20051;-74
2022/01/26 05:30:19;;;;;;;0.43;0.43;;;-0.60;99.90;;;;;;5053804;28;20025;-74
2022/01/26 05:32:45;;;;;;;0.47;0.47;;;-0.70;99.90;;;;;;5053816;28;20029;-74
2022/01/26 05:35:11;;;;;;;0.30;0.30;;;-0.80;99.90;;;;;;5035863;28;20029;-74
2022/01/26 05:37:37;;;;;;;0.50;0.50;;;-0.60;99.90;;;;;;5019106;28;20086;-74
2022/01/26 05:40:04;;;;;;;3.47;3.25;;;-0.70;99.90;;;;;;5018989;28;20514;-74
2022/01/26 05:42:30;;;;;;;0.40;0.40;;;-0.90;99.90;;;;;;5035432;28;20488;-73
2022/01/26 05:45:02;;;;;;;0.73;0.73;;;-1.00;99.90;;;;;;5053350;28;20494;-74
2022/01/26 05:47:31;;;;;;;0.40;0.40;;;-1.20;99.90;;;;;;5019023;28;20068;-73
2022/01/26 05:49:57;;;;;;;0.70;0.70;;;-1.40;99.90;;;;;;5053243;28;20033;-74
2022/01/26 05:52:22;;;;;;;1.02;1.02;;;-1.30;99.90;;;;;;5053273;28;20086;-74
2022/01/26 05:54:48;;;;;;;0.47;0.47;;;-1.20;99.90;;;;;;5035647;28;20099;-74
2022/01/26 05:57:14;;;;;;;0.40;0.40;;;-1.30;99.90;;;;;;5018729;28;20025;-74
2022/01/26 05:59:39;;;;;;;0.40;0.40;;;-1.30;99.90;;;;;;5053236;28;20024;-74
2022/01/26 06:02:05;;;;;;;0.40;0.40;;;-1.20;99.90;;;;;;5053111;28;20468;-74
2022/01/26 06:04:32;;;;;;;0.73;0.73;;;-1.20;99.90;;;;;;5035289;28;20028;-74
2022/01/26 06:06:58;;;;;;;0.77;0.77;;;-1.10;99.90;;;;;;5035088;28;20025;-74
2022/01/26 06:09:24;;;;;;;8.30;3.15;;;-1.40;99.90;;;;;;5018683;28;20025;-74
2022/01/26 06:11:50;;;;;;;0.47;0.47;;;-1.40;99.90;;;;;;5035194;28;20063;-73
2022/01/26 06:14:15;;;;;;;0.50;0.50;;;-1.40;99.90;;;;;;5035007;28;20048;-74
2022/01/26 06:16:41;;;;;;;0.50;0.50;;;-1.40;99.90;;;;;;5052763;28;20029;-74
2022/01/26 06:19:07;;;;;;;1.70;1.00;;;-1.40;99.90;;;;;;5052824;28;20052;-74
2022/01/26 06:21:33;;;;;;;0.40;0.40;;;-1.50;99.90;;;;;;5034638;28;20078;-74
2022/01/26 06:23:59;;;;;;;0.50;0.50;;;-1.40;99.90;;;;;;5052744;28;20032;-74
2022/01/26 06:26:24;;;;;;;0.43;0.43;;;-1.40;99.90;;;;;;5052708;28;20035;-74
2022/01/26 06:28:50;;;;;;;0.50;0.50;;;-1.40;99.90;;;;;;5052544;28;20100;-74
2022/01/26 06:31:17;;;;;;;0.60;0.60;;;-1.60;99.90;;;;;;5052438;28;20029;-74
2022/01/26 06:33:45;;;;;;;0.90;0.90;;;-1.90;99.90;;;;;;5018116;28;20422;-74
2022/01/26 06:36:13;;;;;;;1.45;1.35;;;-1.90;99.90;;;;;;5017988;28;20028;-74
2022/01/26 06:38:41;;;;;;;0.50;0.50;;;-2.10;99.90;;;;;;5034520;28;20031;-74
2022/01/26 06:41:07;;;;;;;1.40;1.30;;;-1.90;99.90;;;;;;5034338;28;20025;-73
2022/01/26 06:43:33;;;;;;;0.50;0.50;;;-2.00;99.90;;;;;;5034401;28;20381;-74
2022/01/26 06:46:07;;;;;;;0.60;0.60;;;-2.00;99.90;;;;;;5034302;28;20056;-74
2022/01/26 06:51:17;;;;;;;0.50;0.50;;;-1.80;99.90;;;;;;5032281;28;20091;-74
2022/01/26 06:53:43;;;;;;;0.57;0.57;;;-1.90;99.90;;;;;;5032004;28;20473;-74
2022/01/26 06:56:09;;;;;;;0.50;0.50;;;-2.00;99.90;;;;;;5014440;28;20041;-74
2022/01/26 06:58:34;;;;;;;0.93;0.93;;;-2.10;99.90;;;;;;5032113;28;20385;-74
2022/01/26 07:01:00;;;;;;;0.50;0.50;;;-2.00;99.90;;;;;;5032051;28;20014;-74
2022/01/26 07:03:29;;;;;;;0.50;0.50;;;-2.00;99.90;;;;;;5027991;28;20027;-73
2022/01/26 07:05:55;;;;;;;1.70;1.60;;;-1.80;99.90;;;;;;5037279;28;20124;-74
2022/01/26 07:08:21;;;;;;;0.50;0.50;;;-1.90;99.90;;;;;;5054158;28;20429;-74
2022/01/26 07:10:48;;;;;;;1.25;1.25;;;-1.70;99.90;;;;;;5054139;28;20704;-75
2022/01/26 07:13:14;;;;;;;1.08;1.08;;;-1.50;99.90;;;;;;5071797;28;20024;-75
2022/01/26 07:23:49;;;;;;;0.50;0.50;;;-1.30;99.90;;;;;;5076179;28;20032;-74
2022/01/26 07:26:16;;;;;;;0.40;0.40;;;-1.30;99.90;;;;;;5060400;28;20504;-74
2022/01/26 07:28:42;;;;;;;0.60;0.60;;;-1.50;99.90;;;;;;5060632;28;20032;-74
2022/01/26 07:31:09;;;;;;;0.57;0.57;;;-1.30;99.90;;;;;;5078300;28;20012;-74
2022/01/26 07:33:35;;;;;;;0.40;0.40;;;-1.20;99.90;;;;;;5060435;28;20322;-74
2022/01/26 07:36:01;;;;;;;0.88;0.88;;;-1.20;99.90;;;;;;5062896;28;20036;-74
2022/01/26 07:38:27;;;;;;;4.22;4.03;;;-1.30;99.90;;;;;;5058031;28;20504;-74
2022/01/26 07:40:54;;;;;;;1.00;1.00;;;-1.30;99.90;;;;;;5058219;28;20021;-74
2022/01/26 07:43:20;;;;;;;1.10;1.10;;;-1.30;99.90;;;;;;5040290;28;20603;-74
2022/01/26 07:45:46;;;;;;;3.75;3.55;;;-1.10;99.90;;;;;;5058202;28;20028;-75
2022/01/26 07:48:11;;;;;;;0.50;0.50;;;-1.10;99.90;;;;;;5040340;28;20024;-75
2022/01/26 07:50:37;;;;;;;1.17;0.60;;;-1.00;99.90;;;;;;5058287;28;20099;-75
2022/01/26 07:53:03;;;;;;;0.40;0.40;;;-1.00;99.90;;;;;;5057920;28;20035;-75
2022/01/26 07:55:30;;;;;;;0.63;0.63;;;-1.00;99.90;;;;;;5058071;28;20025;-75
2022/01/26 07:57:57;;;;;;;0.40;0.40;;;-1.00;99.90;;;;;;5057207;28;20488;-75
2022/01/26 08:00:23;;;;;;;0.50;0.50;;;-1.00;99.90;;;;;;5056769;28;20025;-74
2022/01/26 08:02:49;;;;;;;0.38;0.38;;;-0.80;99.90;;;;;;5050626;28;20035;-73
2022/01/26 08:05:16;;;;;;;1.00;0.82;;;-0.80;99.90;;;;;;5043102;28;20361;-74
2022/01/26 08:07:42;;;;;;;0.40;0.40;;;-0.80;99.90;;;;;;5043336;28;20028;-74
2022/01/26 08:10:09;;;;;;;0.55;0.55;;;-1.00;99.90;;;;;;5077957;28;20048;-74
2022/01/26 08:12:37;;;;;;;0.40;0.40;;;-0.90;99.90;;;;;;5068081;28;20036;-74
2022/01/26 08:15:03;;;;;;;0.40;0.40;;;-0.70;99.90;;;;;;5024227;28;20032;-75
2022/01/26 08:17:29;;;;;;;1.50;1.35;;;-0.60;99.90;;;;;;5056884;28;20098;-75
2022/01/26 08:19:56;;;;;;;0.63;0.63;;;-0.50;99.90;;;;;;5024246;28;20021;-75
2022/01/26 08:22:25;;;;;;;0.45;0.45;;;-0.50;99.90;;;;;;5039402;28;20524;-75
2022/01/26 08:24:50;;;;;;;0.38;0.38;;;-0.40;99.90;;;;;;5051752;28;20021;-75
2022/01/26 08:27:18;;;;;;;0.52;0.52;;;-0.10;99.90;;;;;;5056724;28;20082;-75
2022/01/26 08:29:51;;;;;;;0.32;0.32;;;0.30;99.90;;;;;;5056767;28;20017;-75
2022/01/26 08:32:17;;;;;;;0.30;0.30;;;0.30;99.90;;;;;;5041114;28;20029;-75
2022/01/26 08:34:43;;;;;;;0.40;0.40;;;0.30;99.90;;;;;;5048057;28;20052;-75
2022/01/26 08:37:09;;;;;;;0.68;0.68;;;0.60;99.90;;;;;;5027508;28;20056;-75
2022/01/26 08:39:36;;;;;;;0.47;0.47;;;0.80;99.90;;;;;;5051840;28;20021;-75
2022/01/26 08:42:05;;;;;;;0.40;0.40;;;0.60;99.90;;;;;;5053474;28;20021;-76
2022/01/26 08:44:32;;;;;;;0.35;0.35;;;0.60;99.90;;;;;;5045434;28;20054;-75
2022/01/26 08:46:58;;;;;;;0.40;0.40;;;0.80;99.90;;;;;;5047160;28;20025;-75
2022/01/26 08:49:25;;;;;;;0.30;0.30;;;0.90;99.90;;;;;;5053405;28;20073;-76
2022/01/26 08:51:52;;;;;;;0.45;0.45;;;1.10;99.90;;;;;;5053342;28;20512;-75
2022/01/26 08:54:20;;;;;;;0.40;0.40;;;1.10;99.90;;;;;;5035544;28;20044;-75
2022/01/26 08:56:50;;;;;;;0.30;0.30;;;1.20;99.90;;;;;;5053066;28;20072;-77
2022/01/26 08:59:17;;;;;;;0.30;0.30;;;1.30;99.90;;;;;;5052960;28;20025;-75
2022/01/26 09:01:43;;;;;;;0.88;0.88;;;1.60;99.90;;;;;;5043408;28;20021;-75
2022/01/26 09:04:09;;;;;;;0.30;0.30;;;1.60;99.90;;;;;;5047632;28;20055;-75
2022/01/26 09:06:39;;;;;;;0.30;0.30;;;1.70;99.90;;;;;;5053195;28;20025;-75
2022/01/26 09:09:07;;;;;;;0.30;0.30;;;1.80;99.90;;;;;;5053048;28;20079;-75
2022/01/26 09:11:36;;;;;;;0.20;0.20;;;1.90;99.90;;;;;;5052821;28;20120;-75
2022/01/26 09:14:07;;;;;;;0.73;0.73;;;2.00;99.90;;;;;;5053060;28;20028;-75
2022/01/26 09:16:35;;;;;;;0.65;0.63;;;2.20;99.90;;;;;;5045795;28;20544;-75
2022/01/26 09:19:09;;;;;;;3.63;1.25;;;2.20;99.90;;;;;;5037375;28;20029;-75
2022/01/26 09:21:35;;;;;;;0.40;0.40;;;2.10;99.90;;;;;;5051591;28;20124;-75
2022/01/26 09:24:01;;;;;;;0.40;0.40;;;2.20;99.90;;;;;;5042715;28;20135;-75
2022/01/26 09:26:27;;;;;;;10.32;0.85;;;2.50;99.90;;;;;;5041260;28;20443;-75
2022/01/26 09:28:53;;;;;;;0.35;0.35;;;2.70;99.90;;;;;;5052999;28;20029;-74
2022/01/26 09:31:19;;;;;;;0.40;0.40;;;2.90;99.90;;;;;;5044273;28;20465;-74
2022/01/26 09:33:45;;;;;;;1.15;1.08;;;2.90;99.90;;;;;;5025691;28;20115;-74
2022/01/26 09:36:11;;;;;;;2.65;0.82;;;3.20;99.90;;;;;;5052602;28;20052;-75
2022/01/26 09:38:38;;;;;;;0.30;0.30;;;3.40;99.90;;;;;;5039714;28;20021;-74
2022/01/26 09:41:04;;;;;;;0.30;0.30;;;3.60;99.90;;;;;;5022862;28;20377;-75
2022/01/26 09:43:30;;;;;;;0.22;0.22;;;3.90;99.90;;;;;;5046250;28;20044;-75
2022/01/26 09:45:56;;;;;;;1.83;1.50;;;4.00;99.90;;;;;;5051521;28;20075;-75
2022/01/26 09:48:22;;;;;;;5.50;1.48;;;4.10;99.90;;;;;;5041426;28;20025;-74
2022/01/26 09:50:54;;;;;;;2.78;1.35;;;4.20;99.90;;;;;;5037481;28;20025;-74
2022/01/26 09:53:22;;;;;;;0.88;0.88;;;4.40;99.90;;;;;;5052537;28;20055;-74
2022/01/26 09:55:48;;;;;;;2.15;0.43;;;4.50;99.90;;;;;;5043467;28;20091;-75
2022/01/26 09:58:15;;;;;;;0.75;0.45;;;4.90;99.90;;;;;;5041537;28;20349;-74
2022/01/26 10:00:41;;;;;;;0.20;0.20;;;5.20;99.90;;;;;;5038798;28;20045;-75
2022/01/26 10:03:06;;;;;;;1.50;1.35;;;5.60;99.90;;;;;;5052180;28;20016;-74
2022/01/26 10:05:40;;;;;;;0.95;0.95;;;5.50;99.90;;;;;;5051688;28;20032;-75
2022/01/26 10:08:13;;;;;;;0.22;0.22;;;5.90;99.90;;;;;;5052150;28;20504;-75
2022/01/26 10:18:54;;;;;;;1.23;0.82;;;7.70;92.90;;;;;;5051907;28;20068;-75
2022/01/26 10:21:36;;;;;;;2.13;0.60;;;8.10;90.10;;;;;;5074196;22;20019;-93
2022/01/26 10:24:16;;;;;;;0.90;0.90;;;8.70;86.30;;;;;;5021043;28;20040;-92
2022/01/26 10:27:31;;;;;;;0.52;0.52;;;9.50;80.60;;;;;;5055827;28;20116;-92
2022/01/26 10:31:08;;;;;;;0.50;0.50;;;9.90;77.10;;;;;;5042938;28;20122;-92
2022/01/26 10:34:18;;;;;;;7.97;3.88;;;10.50;71.50;;;;;;5025868;28;20038;-92
2022/01/26 10:37:11;;;;;;;;;;;;;;;;;;;;;
2022/01/26 10:39:52;;;;;;;2.45;1.48;;;10.50;68.90;;;;;;5041851;28;20064;-94
2022/01/26 10:42:21;;;;;;;0.20;0.20;;;10.80;66.90;;;;;;5036101;23;20068;-76
2022/01/26 10:45:13;;;;;;;0.60;0.40;;;10.70;68.20;;;;;;5031878;28;20014;-76
2022/01/26 10:47:38;;;;;;;0.30;0.30;;;11.20;65.80;;;;;;5031114;28;20033;-77
2022/01/26 10:53:12;;;;;;;2.83;0.95;;;12.80;60.00;;;;;;5013006;28;20021;-76
2022/01/26 10:55:39;;;;;;;0.25;0.25;;;13.30;59.20;;;;;;5026833;28;20017;-76
2022/01/26 10:58:07;;;;;;;1.05;1.05;;;13.30;57.10;;;;;;5030270;28;20437;-76
2022/01/26 11:00:39;;;;;;;0.60;0.60;;;12.80;57.60;;;;;;5002203;28;20036;-77
2022/01/26 11:03:05;;;;;;;1.83;1.27;;;13.40;57.20;;;;;;5031071;28;20021;-76
2022/01/26 11:05:31;;;;;;;0.20;0.20;;;13.20;55.50;;;;;;5031153;28;20037;-76
2022/01/26 11:07:58;;;;;;;0.95;0.90;;;13.20;57.00;;;;;;5017560;28;20029;-77
2022/01/26 11:10:33;;;;;;;0.20;0.20;;;13.40;56.30;;;;;;5022090;28;20017;-76
2022/01/26 11:12:59;;;;;;;0.47;0.43;;;14.30;55.30;;;;;;5031580;28;20045;-77
2022/01/26 11:15:25;;;;;;;0.20;0.20;;;14.80;53.20;;;;;;5031895;28;20060;-76
2022/01/26 11:17:51;;;;;;;1.45;0.73;;;15.10;52.90;;;;;;5014520;28;20517;-77
2022/01/26 11:20:21;;;;;;;1.38;0.93;;;15.60;51.00;;;;;;5018074;28;20469;-76
2022/01/26 11:22:56;;;;;;;1.95;1.17;;;15.30;50.20;;;;;;5008805;28;20030;-76
2022/01/26 11:25:23;;;;;;;0.85;0.85;;;14.90;49.10;;;;;;5014226;28;20025;-76
2022/01/26 11:27:51;;;;;;;3.72;3.42;;;13.70;51.50;;;;;;5020162;28;20021;-76
2022/01/26 11:30:29;;;;;;;4.30;0.95;;;14.40;52.70;;;;;;5003699;28;20022;-76
2022/01/26 11:32:58;;;;;;;1.63;0.77;;;15.30;50.50;;;;;;5015437;28;20033;-76
2022/01/26 11:35:30;;;;;;;0.43;0.43;;;15.80;49.40;;;;;;5031422;28;20023;-77
2022/01/26 11:38:51;;;;;;;1.38;0.90;;;15.80;48.60;;;;;;5017899;28;20455;-76
2022/01/26 11:46:58;;;;;;;0.30;0.30;;;16.30;47.30;;;;;;5029474;28;20421;-77
2022/01/26 11:49:34;;;;;;;0.75;0.75;;;16.50;47.20;;;;;;5014210;28;20037;-76
2022/01/26 11:52:00;;;;;;;0.20;0.20;;;16.90;47.10;;;;;;5013143;28;20033;-76
2022/01/26 11:54:28;;;;;;;1.33;0.82;;;16.20;47.20;;;;;;5018080;28;20021;-76
2022/01/26 11:57:01;;;;;;;1.17;0.90;;;15.10;46.30;;;;;;5019537;28;20057;-77
2022/01/26 11:59:30;;;;;;;2.63;0.85;;;14.50;49.40;;;;;;5030654;28;20447;-77
2022/01/26 12:02:01;;;;;;;0.15;0.15;;;13.70;49.90;;;;;;5031476;28;20120;-76
2022/01/26 12:04:31;;;;;;;0.82;0.82;;;13.60;51.20;;;;;;5019765;28;20156;-77
2022/01/26 12:07:09;;;;;;;0.10;0.10;;;14.40;51.20;;;;;;5025384;28;20128;-78
2022/01/26 12:09:35;;;;;;;2.83;2.08;;;15.70;49.30;;;;;;5021155;28;20381;-76
2022/01/26 12:12:01;;;;;;;0.10;0.10;;;15.60;47.80;;;;;;5034519;28;20063;-76
2022/01/26 12:14:26;;;;;;;2.17;1.30;;;15.60;48.90;;;;;;5034046;28;20070;-76
2022/01/26 12:16:55;;;;;;;0.28;0.28;;;15.40;46.80;;;;;;5034481;28;20025;-76
2022/01/26 12:33:54;;;;;;;1.25;0.57;;;16.00;47.40;;;;;;5032837;28;20024;-75
2022/01/26 12:36:02;;;;;;;0.00;0.00;;;16.80;46.30;;;;;;5030846;28;20446;-75
2022/01/26 12:38:43;;;;;;;1.95;1.85;;;17.20;44.60;;;;;;5033366;28;20461;-76
2022/01/26 12:43:55;;;;;;;0.17;0.17;;;15.30;46.80;;;;;;5011969;28;20033;-76
2022/01/26 12:46:24;;;;;;;2.30;0.85;;;14.80;47.90;;;;;;5027784;28;20028;-76
2022/01/26 12:48:59;;;;;;;1.00;0.60;;;15.10;48.70;;;;;;5032376;28;20021;-76
2022/01/26 12:51:26;;;;;;;0.45;0.38;;;15.30;48.30;;;;;;5016385;28;20025;-76
2022/01/26 12:53:59;;;;;;;0.30;0.30;;;14.20;48.50;;;;;;5022771;28;20059;-76
2022/01/26 12:56:27;;;;;;;0.20;0.20;;;14.50;50.20;;;;;;5008879;28;20029;-76
2022/01/26 12:59:04;;;;;;;0.63;0.63;;;14.90;50.00;;;;;;5003270;28;20022;-75
2022/01/26 13:01:29;;;;;;;0.63;0.63;;;14.60;48.70;;;;;;5032353;28;20136;-76
2022/01/26 13:04:01;;;;;;;0.30;0.30;;;14.30;50.00;;;;;;5031094;28;20117;-76
2022/01/26 13:06:31;;;;;;;0.10;0.10;;;14.60;49.50;;;;;;5032554;28;20025;-76
2022/01/26 13:08:59;;;;;;;0.47;0.43;;;14.50;49.40;;;;;;5033273;28;20095;-76
2022/01/26 13:11:35;;;;;;;0.20;0.20;;;14.60;49.40;;;;;;5023916;28;20033;-77
2022/01/26 13:14:23;;;;;;;0.25;0.25;;;14.90;48.40;;;;;;5032735;28;20025;-76
2022/01/26 13:20:14;;;;;;;1.00;0.38;;;15.00;48.40;;;;;;5029068;28;20487;-76
2022/01/26 13:30:52;;;;;;;0.28;0.28;;;15.80;46.10;;;;;;5031760;28;20018;-76
2022/01/26 13:39:10;;;;;;;0.13;0.13;;;14.30;49.20;;;;;;5032996;28;20029;-74
2022/01/26 13:41:49;;;;;;;0.28;0.28;;;13.70;50.80;;;;;;5032695;28;20473;-72
2022/01/26 13:44:50;;;;;;;2.28;1.48;;;12.90;51.10;;;;;;5031023;28;20025;-72
2022/01/26 13:50:23;;;;;;;0.47;0.47;;;12.00;54.30;;;;;;5020410;28;20052;-72
2022/01/26 13:52:58;;;;;;;0.20;0.20;;;11.60;55.00;;;;;;5032941;28;20018;-72
2022/01/26 14:00:24;;;;;;;0.10;0.10;;;11.10;57.90;;;;;;5032893;28;20033;-72
2022/01/26 14:02:55;;;;;;;0.20;0.20;;;11.20;58.20;;;;;;5031925;28;20438;-72
2022/01/26 14:05:21;;;;;;;0.40;0.40;;;11.20;58.60;;;;;;5032174;28;20474;-72
2022/01/26 14:07:47;;;;;;;0.17;0.17;;;11.00;58.90;;;;;;5031512;28;20029;-72
2022/01/26 14:10:12;;;;;;;0.30;0.30;;;10.70;59.30;;;;;;5031584;28;20119;-72
2022/01/26 14:12:45;;;;;;;0.10;0.10;;;10.60;59.90;;;;;;5004461;28;20312;-72
2022/01/26 14:15:11;;;;;;;0.20;0.20;;;10.40;61.00;;;;;;5026906;28;20396;-72
2022/01/26 14:17:57;;;;;;;0.10;0.10;;;10.20;60.00;;;;;;5022478;28;20052;-72
2022/01/26 14:23:18;;;;;;;0.17;0.17;;;10.40;62.00;;;;;;5031983;28;20082;-71
2022/01/26 14:25:47;;;;;;;0.28;0.28;;;10.10;61.10;;;;;;5031791;28;20025;-71
2022/01/26 14:28:15;;;;;;;0.20;0.20;;;9.70;62.50;;;;;;5020785;28;20021;-71
2022/01/26 14:31:09;;;;;;;0.28;0.28;;;9.50;62.40;;;;;;5004884;28;20036;-72
2022/01/26 15:49:26;;;;;;;1.55;1.45;;;7.20;68.10;;;;;;5031159;28;20033;-75
2022/01/26 15:57:53;;;;;;;0.28;0.28;;;6.30;71.10;;;;;;5032066;28;20025;-74
2022/01/26 16:26:17;;;;;;;0.20;0.20;;;5.80;74.80;;;;;;5032839;28;20087;-75
2022/01/26 16:38:51;;;;;;;1.42;1.42;;;5.00;77.90;;;;;;5013260;28;20030;-76
2022/01/26 16:52:32;;;;;;;0.22;0.22;;;5.00;80.90;;;;;;5014414;28;20022;-76
2022/01/26 17:47:07;;;;;;;1.33;1.33;;;3.70;90.40;;;;;;4994043;28;20041;-77
2022/01/26 18:51:58;;;;;;;3.40;3.13;;;1.80;99.90;;;;;;4979047;28;20124;-77
2022/01/26 18:54:29;;;;;;;8.90;3.58;;;1.80;99.90;;;;;;5011316;28;20540;-77
2022/01/26 18:56:58;;;;;;;0.40;0.40;;;1.60;99.90;;;;;;4998616;28;20026;-77
2022/01/26 18:59:25;;;;;;;0.82;0.82;;;1.80;99.90;;;;;;4994164;28;20512;-77
2022/01/26 19:01:52;;;;;;;1.63;1.52;;;1.90;99.90;;;;;;4983568;28;21165;-77
2022/01/26 19:04:26;;;;;;;0.50;0.50;;;2.00;99.90;;;;;;4998248;28;20076;-77
2022/01/26 19:06:54;;;;;;;3.28;2.15;;;2.10;99.90;;;;;;4998561;28;20044;-77
2022/01/26 19:09:23;;;;;;;1.02;1.02;;;2.30;99.90;;;;;;5010871;28;20042;-77
2022/01/26 19:11:50;;;;;;;3.10;3.00;;;2.60;99.90;;;;;;5001146;28;20072;-76
2022/01/26 19:14:16;;;;;;;15.45;14.18;;;2.50;99.90;;;;;;5011182;28;20034;-77
2022/01/26 19:16:48;;;;;;;1.42;1.33;;;2.40;99.90;;;;;;4998951;28;20033;-77
2022/01/26 19:26:52;;;;;;;3.63;2.92;;;2.50;99.90;;;;;;5010828;28;20022;-77
2022/01/26 19:51:40;;;;;;;17.17;1.17;;;2.50;99.90;;;;;;5001543;28;20030;-77
2022/01/26 19:54:06;;;;;;;0.40;0.40;;;2.30;99.90;;;;;;4993932;28;20061;-76
2022/01/26 19:56:31;;;;;;;7.40;4.28;;;2.20;99.90;;;;;;5011572;28;20320;-76
2022/01/26 19:58:57;;;;;;;1.42;1.38;;;2.20;99.90;;;;;;5010092;28;20029;-76
2022/01/26 20:01:23;;;;;;;2.10;1.38;;;2.10;99.90;;;;;;4993901;28;20022;-76
2022/01/26 20:03:50;;;;;;;2.83;1.95;;;2.00;99.90;;;;;;4993986;28;20026;-76
2022/01/26 20:06:15;;;;;;;2.38;2.05;;;1.80;99.90;;;;;;4994190;28;20030;-76
2022/01/26 20:08:51;;;;;;;0.30;0.30;;;1.90;99.90;;;;;;5011559;28;20030;-76